createdAt,value
2022-11-15T00:00:55.322Z,35.47
2022-11-15T00:03:25.040Z,36.28
2022-11-15T00:05:51.805Z,36.25
2022-11-15T00:08:18.536Z,35.67
2022-11-15T00:10:58.837Z,35.45
2022-11-15T00:15:52.365Z,35.65
2022-11-15T00:18:19.488Z,41.00
2022-11-15T00:20:46.294Z,37.22
2022-11-15T00:23:13.148Z,37.40
2022-11-15T00:25:39.788Z,39.20
2022-11-15T00:28:06.502Z,38.17
2022-11-15T00:30:33.514Z,37.53
2022-11-15T00:33:07.192Z,39.70
2022-11-15T00:35:34.634Z,38.97
2022-11-15T00:38:02.141Z,38.72
2022-11-15T00:40:28.862Z,39.25
2022-11-15T00:42:55.511Z,37.42
2022-11-15T00:45:22.310Z,38.42
2022-11-15T00:47:48.916Z,38.97
2022-11-15T00:50:15.786Z,37.08
2022-11-15T00:52:42.857Z,38.28
2022-11-15T00:55:15.911Z,36.22
2022-11-15T00:57:42.697Z,37.35
2022-11-15T01:00:10.173Z,35.55
2022-11-15T01:02:36.855Z,36.25
2022-11-15T01:05:03.741Z,36.38
2022-11-15T01:07:30.473Z,36.45
2022-11-15T01:09:57.129Z,35.22
2022-11-15T01:12:23.733Z,36.55
2022-11-15T01:14:50.823Z,36.08
2022-11-15T01:17:17.537Z,39.72
2022-11-15T01:19:44.122Z,39.97
2022-11-15T01:22:10.749Z,39.13
2022-11-15T01:24:37.428Z,37.42
2022-11-15T01:27:04.129Z,36.90
2022-11-15T01:29:30.752Z,37.38
2022-11-15T01:31:57.361Z,35.97
2022-11-15T01:34:23.948Z,36.55
2022-11-15T01:36:50.568Z,37.67
2022-11-15T01:39:17.745Z,36.08
2022-11-15T01:41:44.486Z,36.35
2022-11-15T01:44:35.729Z,37.83
2022-11-15T01:47:07.970Z,38.00
2022-11-15T01:49:38.733Z,34.03
2022-11-15T01:52:11.339Z,35.35
2022-11-15T01:54:38.076Z,36.53
2022-11-15T01:57:12.919Z,34.60
2022-11-15T01:59:43.214Z,35.13
2022-11-15T02:02:10.012Z,38.33
2022-11-15T02:04:41.521Z,34.55
2022-11-15T02:07:10.757Z,37.85
2022-11-15T02:09:38.585Z,37.63
2022-11-15T02:12:06.382Z,38.13
2022-11-15T02:14:34.152Z,36.53
2022-11-15T02:17:19.771Z,36.10
2022-11-15T02:20:29.281Z,38.53
2022-11-15T02:23:33.953Z,39.90
2022-11-15T02:26:29.924Z,37.92
2022-11-15T02:29:02.584Z,38.42
2022-11-15T02:31:52.606Z,36.25
2022-11-15T02:34:42.531Z,39.17
2022-11-15T02:37:30.148Z,38.45
2022-11-15T02:40:23.252Z,39.65
2022-11-15T02:43:27.887Z,39.80
2022-11-15T02:46:12.784Z,37.20
2022-11-15T02:48:40.195Z,40.17
2022-11-15T02:51:07.360Z,38.38
2022-11-15T02:53:34.212Z,42.03
2022-11-15T02:56:01.164Z,41.38
2022-11-15T02:58:54.609Z,44.72
2022-11-15T03:01:46.992Z,47.03
2022-11-15T03:04:30.848Z,44.10
2022-11-15T03:07:06.514Z,42.78
2022-11-15T03:09:53.032Z,40.92
2022-11-15T03:12:26.626Z,40.67
2022-11-15T03:15:02.239Z,41.15
2022-11-15T03:17:30.752Z,40.10
2022-11-15T03:20:00.234Z,36.58
2022-11-15T03:22:30.196Z,38.13
2022-11-15T03:25:04.485Z,37.78
2022-11-15T03:27:38.897Z,38.97
2022-11-15T03:30:08.531Z,41.15
2022-11-15T03:32:57.719Z,37.70
2022-11-15T03:35:27.803Z,36.80
2022-11-15T03:38:20.937Z,36.90
2022-11-15T03:40:59.867Z,38.67
2022-11-15T03:44:04.340Z,36.97
2022-11-15T03:46:39.459Z,37.88
2022-11-15T03:49:14.119Z,36.92
2022-11-15T03:51:41.260Z,35.33
2022-11-15T03:54:07.914Z,38.63
2022-11-15T03:56:34.527Z,37.25
2022-11-15T03:59:01.142Z,39.70
2022-11-15T04:01:27.833Z,38.10
2022-11-15T04:03:54.510Z,38.08
2022-11-15T04:06:21.240Z,38.80
2022-11-15T04:08:47.831Z,36.75
2022-11-15T04:11:14.414Z,36.97
2022-11-15T04:13:41.012Z,36.58
2022-11-15T04:16:07.681Z,37.75
2022-11-15T04:18:34.311Z,35.92
2022-11-15T04:21:19.939Z,36.63
2022-11-15T04:23:52.722Z,36.13
2022-11-15T04:26:22.185Z,34.47
2022-11-15T04:29:07.594Z,33.38
2022-11-15T04:31:34.334Z,35.42
2022-11-15T04:34:00.966Z,34.75
2022-11-15T04:36:46.288Z,34.47
2022-11-15T04:39:12.938Z,34.08
2022-11-15T04:41:39.528Z,33.58
2022-11-15T04:44:06.140Z,33.22
2022-11-15T04:46:32.716Z,34.80
2022-11-15T04:48:59.616Z,37.53
2022-11-15T04:51:26.648Z,33.28
2022-11-15T04:53:53.719Z,31.98
2022-11-15T04:56:20.521Z,34.60
2022-11-15T04:58:50.093Z,33.92
2022-11-15T05:01:17.175Z,34.88
2022-11-15T05:04:03.240Z,33.50
2022-11-15T05:06:30.567Z,35.20
2022-11-15T05:08:57.635Z,34.20
2022-11-15T05:11:24.926Z,36.38
2022-11-15T05:13:51.747Z,35.90
2022-11-15T05:16:18.376Z,36.92
2022-11-15T05:18:45.023Z,40.00
2022-11-15T05:21:14.203Z,42.45
2022-11-15T05:23:41.457Z,37.67
2022-11-15T05:26:09.497Z,40.63
2022-11-15T05:28:37.432Z,40.15
2022-11-15T05:31:05.583Z,42.75
2022-11-15T05:33:34.451Z,42.00
2022-11-15T05:36:10.703Z,43.88
2022-11-15T05:38:37.548Z,43.95
2022-11-15T05:41:05.797Z,41.83
2022-11-15T05:43:36.487Z,40.17
2022-11-15T05:46:05.288Z,40.15
2022-11-15T05:48:33.389Z,43.35
2022-11-15T05:51:00.917Z,40.47
2022-11-15T05:53:27.980Z,40.65
2022-11-15T05:55:54.736Z,42.25
2022-11-15T05:58:21.722Z,37.45
2022-11-15T06:00:48.681Z,39.05
2022-11-15T06:03:15.296Z,37.15
2022-11-15T06:05:41.976Z,36.38
2022-11-15T06:08:08.659Z,33.90
2022-11-15T06:10:35.284Z,34.10
2022-11-15T06:13:06.175Z,33.47
2022-11-15T06:15:35.981Z,33.50
2022-11-15T06:18:02.664Z,32.83
2022-11-15T06:20:30.572Z,30.65
2022-11-15T06:23:06.820Z,31.60
2022-11-15T06:25:33.442Z,31.52
2022-11-15T06:28:00.639Z,32.30
2022-11-15T06:30:27.944Z,31.15
2022-11-15T06:33:05.414Z,29.98
2022-11-15T06:35:34.329Z,30.08
2022-11-15T06:38:06.828Z,29.60
2022-11-15T06:40:38.052Z,31.27
2022-11-15T06:43:05.874Z,31.38
2022-11-15T06:45:33.295Z,32.33
2022-11-15T06:47:59.999Z,32.90
2022-11-15T06:50:26.639Z,31.20
2022-11-15T06:52:53.274Z,32.55
2022-11-15T06:55:20.174Z,31.65
2022-11-15T06:57:51.867Z,30.73
2022-11-15T07:00:20.971Z,31.80
2022-11-15T07:02:48.484Z,31.50
2022-11-15T07:05:15.844Z,31.88
2022-11-15T07:07:42.602Z,31.25
2022-11-15T07:10:09.784Z,31.33
2022-11-15T07:12:36.566Z,32.08
2022-11-15T07:15:03.329Z,31.08
2022-11-15T07:17:29.895Z,31.33
2022-11-15T07:19:56.504Z,31.33
2022-11-15T07:22:23.132Z,33.38
2022-11-15T07:24:49.756Z,37.58
2022-11-15T07:27:16.510Z,37.80
2022-11-15T07:29:43.375Z,38.20
2022-11-15T07:32:10.603Z,38.38
2022-11-15T07:34:37.212Z,36.80
2022-11-15T07:37:03.843Z,36.47
2022-11-15T07:39:30.455Z,40.65
2022-11-15T07:42:17.093Z,40.33
2022-11-15T07:44:43.697Z,33.92
2022-11-15T07:47:10.426Z,41.33
2022-11-15T07:49:37.007Z,38.53
2022-11-15T07:52:03.732Z,41.03
2022-11-15T07:54:30.411Z,37.03
2022-11-15T07:56:57.886Z,40.53
2022-11-15T07:59:26.822Z,43.42
2022-11-15T08:01:53.676Z,41.03
2022-11-15T08:04:20.448Z,40.70
2022-11-15T08:06:47.096Z,43.63
2022-11-15T08:09:13.775Z,45.90
2022-11-15T08:11:40.390Z,44.72
2022-11-15T08:14:07.005Z,43.25
2022-11-15T08:16:34.038Z,49.20
2022-11-15T08:19:01.178Z,46.00
2022-11-15T08:21:28.010Z,45.83
2022-11-15T08:23:54.587Z,48.13
2022-11-15T08:26:21.319Z,49.65
2022-11-15T08:28:47.968Z,50.22
2022-11-15T08:31:17.770Z,48.30
2022-11-15T08:33:44.872Z,51.72
2022-11-15T08:36:15.717Z,45.50
2022-11-15T08:38:42.749Z,51.88
2022-11-15T08:41:15.984Z,48.70
2022-11-15T08:43:42.618Z,49.47
2022-11-15T08:46:13.459Z,49.17
2022-11-15T08:48:40.114Z,50.78
2022-11-15T08:51:07.144Z,47.65
2022-11-15T08:53:35.050Z,49.13
2022-11-15T08:56:01.889Z,47.78
2022-11-15T08:58:28.618Z,49.47
2022-11-15T09:00:55.632Z,49.67
2022-11-15T09:03:22.251Z,47.83
2022-11-15T09:05:48.896Z,45.60
2022-11-15T09:08:40.715Z,46.75
2022-11-15T09:11:09.943Z,45.80
2022-11-15T09:13:40.494Z,43.83
2022-11-15T09:16:07.404Z,44.40
2022-11-15T09:18:35.615Z,44.47
2022-11-15T09:21:03.808Z,43.67
2022-11-15T09:23:30.861Z,42.28
2022-11-15T09:26:02.245Z,43.15
2022-11-15T09:28:30.095Z,41.33
2022-11-15T09:31:01.585Z,40.45
2022-11-15T09:33:29.577Z,40.92
2022-11-15T09:36:02.192Z,41.20
2022-11-15T09:38:29.375Z,38.08
2022-11-15T09:41:14.785Z,39.42
2022-11-15T09:43:56.798Z,37.53
2022-11-15T09:46:43.700Z,38.40
2022-11-15T09:49:13.448Z,36.40
2022-11-15T09:51:49.062Z,37.03
2022-11-15T09:57:39.907Z,34.13
2022-11-15T10:03:18.671Z,32.95
2022-11-15T10:05:48.106Z,34.28
2022-11-15T10:08:38.201Z,33.05
2022-11-15T10:14:00.220Z,32.33
2022-11-15T10:16:54.073Z,31.17
2022-11-15T10:19:51.148Z,30.98
2022-11-15T10:22:32.750Z,29.58
2022-11-15T10:25:20.691Z,31.00
2022-11-15T10:28:17.775Z,27.38
2022-11-15T10:30:48.020Z,28.80
2022-11-15T10:36:12.182Z,28.50
2022-11-15T10:38:50.990Z,28.63
2022-11-15T10:41:32.516Z,27.73
2022-11-15T10:44:29.945Z,26.45
2022-11-15T10:46:56.653Z,27.65
2022-11-15T10:49:31.335Z,28.17
2022-11-15T10:52:17.850Z,26.05
2022-11-15T10:54:51.131Z,25.83
2022-11-15T10:57:21.505Z,25.50
2022-11-15T10:59:51.500Z,25.23
2022-11-15T11:02:39.008Z,24.38
2022-11-15T11:05:38.110Z,22.55
2022-11-15T11:08:16.916Z,22.45
2022-11-15T11:11:02.226Z,21.88
2022-11-15T11:13:40.952Z,21.38
2022-11-15T11:16:22.764Z,20.27
2022-11-15T11:19:07.663Z,22.17
2022-11-15T11:21:50.628Z,21.15
2022-11-15T11:24:49.886Z,19.55
2022-11-15T11:27:47.581Z,19.63
2022-11-15T11:30:24.333Z,18.27
2022-11-15T11:33:29.086Z,17.95
2022-11-15T11:36:18.068Z,16.90
2022-11-15T11:39:12.398Z,17.25
2022-11-15T11:41:41.771Z,18.27
2022-11-15T11:44:35.229Z,17.70
2022-11-15T11:47:10.409Z,16.17
2022-11-15T11:49:53.517Z,18.35
2022-11-15T11:52:27.831Z,18.30
2022-11-15T11:55:02.783Z,16.73
2022-11-15T11:58:10.794Z,15.68
2022-11-15T12:00:44.014Z,17.48
2022-11-15T12:03:32.333Z,17.63
2022-11-15T12:06:02.823Z,16.80
2022-11-15T12:08:54.701Z,16.55
2022-11-15T12:11:46.256Z,14.90
2022-11-15T12:14:44.110Z,15.57
2022-11-15T12:17:15.483Z,14.80
2022-11-15T12:19:43.767Z,16.13
2022-11-15T12:22:41.842Z,15.00
2022-11-15T12:25:20.695Z,14.57
2022-11-15T12:28:01.170Z,15.30
2022-11-15T12:30:41.775Z,15.13
2022-11-15T12:33:36.228Z,14.15
2022-11-15T12:36:30.197Z,13.85
2022-11-15T12:39:05.607Z,12.95
2022-11-15T12:41:42.730Z,14.23
2022-11-15T12:44:14.527Z,14.93
2022-11-15T12:46:41.448Z,13.77
2022-11-15T12:49:26.916Z,12.88
2022-11-15T12:51:59.562Z,14.88
2022-11-15T12:54:27.481Z,15.63
2022-11-15T12:57:09.304Z,13.15
2022-11-15T12:59:56.292Z,14.07
2022-11-15T13:02:30.692Z,12.93
2022-11-15T13:05:15.999Z,13.20
2022-11-15T13:07:42.539Z,13.75
2022-11-15T13:10:35.540Z,13.45
2022-11-15T13:13:05.196Z,13.65
2022-11-15T13:15:42.611Z,13.63
2022-11-15T13:18:24.659Z,13.02
2022-11-15T13:20:51.353Z,15.18
2022-11-15T13:23:18.062Z,13.93
2022-11-15T13:25:58.505Z,13.00
2022-11-15T13:28:42.836Z,14.40
2022-11-15T13:31:38.657Z,13.98
2022-11-15T13:34:50.655Z,14.40
2022-11-15T13:37:21.752Z,14.30
2022-11-15T13:39:50.123Z,13.85
2022-11-15T13:42:18.714Z,14.75
2022-11-15T13:45:04.422Z,14.57
2022-11-15T13:47:32.639Z,12.50
2022-11-15T13:50:00.456Z,14.57
2022-11-15T13:52:35.917Z,15.13
2022-11-15T13:55:14.290Z,14.52
2022-11-15T13:57:45.517Z,13.63
2022-11-15T14:00:33.220Z,12.80
2022-11-15T14:03:09.284Z,14.00
2022-11-15T14:05:36.320Z,13.25
2022-11-15T14:08:25.087Z,12.98
2022-11-15T14:11:16.225Z,12.25
2022-11-15T14:13:43.515Z,13.18
2022-11-15T14:16:20.671Z,12.30
2022-11-15T14:18:52.301Z,12.05
2022-11-15T14:21:20.665Z,12.48
2022-11-15T14:23:49.957Z,12.15
2022-11-15T14:26:34.555Z,12.07
2022-11-15T14:29:32.923Z,11.90
2022-11-15T14:32:23.788Z,12.48
2022-11-15T14:34:56.250Z,12.38
2022-11-15T14:37:25.736Z,12.00
2022-11-15T14:39:53.137Z,11.82
2022-11-15T14:42:20.629Z,13.95
2022-11-15T14:44:47.854Z,12.07
2022-11-15T14:47:14.580Z,12.32
2022-11-15T14:49:41.332Z,13.02
2022-11-15T14:52:32.247Z,12.63
2022-11-15T14:55:00.616Z,13.45
2022-11-15T14:57:27.312Z,14.50
2022-11-15T14:59:54.189Z,15.07
2022-11-15T15:02:26.579Z,14.50
2022-11-15T15:04:54.164Z,15.00
2022-11-15T15:07:21.450Z,17.45
2022-11-15T15:09:48.221Z,25.02
2022-11-15T15:12:20.578Z,25.75
2022-11-15T15:14:48.964Z,28.73
2022-11-15T15:17:16.032Z,27.63
2022-11-15T15:19:42.804Z,26.02
2022-11-15T15:22:18.043Z,27.05
2022-11-15T15:24:46.048Z,30.48
2022-11-15T15:27:13.517Z,30.15
2022-11-15T15:29:40.220Z,30.80
2022-11-15T15:32:07.136Z,32.50
2022-11-15T15:34:34.471Z,33.38
2022-11-15T15:37:34.067Z,34.72
2022-11-15T15:40:00.699Z,35.72
2022-11-15T15:42:27.297Z,38.10
2022-11-15T15:44:53.930Z,36.67
2022-11-15T15:47:24.382Z,32.88
2022-11-15T15:49:51.697Z,35.65
2022-11-15T15:52:18.340Z,33.00
2022-11-15T15:54:45.042Z,31.95
2022-11-15T15:57:15.533Z,33.13
2022-11-15T15:59:42.178Z,31.25
2022-11-15T16:02:15.700Z,36.78
2022-11-15T16:04:42.330Z,32.38
2022-11-15T16:07:20.106Z,38.92
2022-11-15T16:10:02.372Z,39.95
2022-11-15T16:12:35.392Z,38.45
2022-11-15T16:15:03.274Z,39.95
2022-11-15T16:17:34.522Z,41.03
2022-11-15T16:20:01.518Z,39.53
2022-11-15T16:22:30.130Z,40.17
2022-11-15T16:24:57.374Z,38.40
2022-11-15T16:27:24.193Z,40.65
2022-11-15T16:29:50.854Z,41.78
2022-11-15T16:32:17.748Z,42.75
2022-11-15T16:34:48.788Z,41.72
2022-11-15T16:37:23.769Z,44.47
2022-11-15T16:39:50.620Z,42.50
2022-11-15T16:42:17.347Z,42.40
2022-11-15T16:44:44.960Z,42.97
2022-11-15T16:47:20.053Z,44.17
2022-11-15T16:49:47.398Z,41.58
2022-11-15T16:52:18.732Z,41.75
2022-11-15T16:54:47.795Z,44.50
2022-11-15T16:57:14.404Z,44.25
2022-11-15T16:59:41.006Z,44.15
2022-11-15T17:02:13.628Z,41.38
2022-11-15T17:04:40.330Z,40.67
2022-11-15T17:07:07.210Z,44.83
2022-11-15T17:09:34.408Z,43.33
2022-11-15T17:12:01.118Z,44.17
2022-11-15T17:14:27.705Z,43.42
2022-11-15T17:16:55.386Z,43.30
2022-11-15T17:19:22.276Z,43.97
2022-11-15T17:21:51.955Z,42.13
2022-11-15T17:24:20.790Z,43.90
2022-11-15T17:26:47.484Z,45.90
2022-11-15T17:29:14.083Z,43.85
2022-11-15T17:31:40.699Z,43.13
2022-11-15T17:34:07.925Z,46.38
2022-11-15T17:36:35.640Z,48.10
2022-11-15T17:39:02.714Z,44.20
2022-11-15T17:41:29.671Z,45.45
2022-11-15T17:43:58.536Z,46.65
2022-11-15T17:46:25.194Z,45.78
2022-11-15T17:48:51.974Z,44.50
2022-11-15T17:51:19.335Z,46.78
2022-11-15T17:53:49.158Z,47.60
2022-11-15T17:56:18.320Z,47.90
2022-11-15T17:58:56.517Z,46.90
2022-11-15T18:01:31.775Z,48.03
2022-11-15T18:04:00.781Z,49.97
2022-11-15T18:06:30.537Z,50.63
2022-11-15T18:08:57.755Z,50.55
2022-11-15T18:11:50.564Z,51.67
2022-11-15T18:14:18.753Z,48.42
2022-11-15T18:16:45.796Z,48.75
2022-11-15T18:19:15.862Z,44.85
2022-11-15T18:21:56.889Z,51.15
2022-11-15T18:24:25.320Z,51.78
2022-11-15T18:26:52.032Z,50.88
2022-11-15T18:29:19.724Z,49.05
2022-11-15T18:31:49.580Z,51.58
2022-11-15T18:34:16.698Z,49.00
2022-11-15T18:36:43.983Z,47.88
2022-11-15T18:39:16.263Z,49.42
2022-11-15T18:41:44.399Z,51.55
2022-11-15T18:44:11.137Z,45.22
2022-11-15T18:46:39.217Z,45.08
2022-11-15T18:49:07.714Z,45.40
2022-11-15T18:51:36.879Z,47.03
2022-11-15T18:54:04.377Z,46.20
2022-11-15T18:56:32.148Z,45.15
2022-11-15T18:59:00.813Z,46.38
2022-11-15T19:01:29.579Z,44.78
2022-11-15T19:03:57.744Z,47.22
2022-11-15T19:06:29.271Z,46.00
2022-11-15T19:08:58.562Z,46.90
2022-11-15T19:11:31.222Z,46.43
2022-11-15T19:14:03.283Z,47.50
2022-11-15T19:16:33.359Z,45.60
2022-11-15T19:19:02.296Z,45.35
2022-11-15T19:21:31.062Z,40.33
2022-11-15T19:23:58.342Z,39.92
2022-11-15T19:26:26.460Z,39.80
2022-11-15T19:28:55.273Z,38.25
2022-11-15T19:31:23.655Z,37.25
2022-11-15T19:33:51.208Z,37.47
2022-11-15T19:36:23.189Z,36.50
2022-11-15T19:38:50.234Z,36.67
2022-11-15T19:41:19.072Z,35.35
2022-11-15T19:43:50.876Z,36.20
2022-11-15T19:46:20.495Z,38.85
2022-11-15T19:48:48.163Z,34.50
2022-11-15T19:51:19.275Z,34.78
2022-11-15T19:53:46.051Z,34.85
2022-11-15T19:56:15.064Z,35.28
2022-11-15T19:58:42.475Z,38.58
2022-11-15T20:01:27.097Z,36.30
2022-11-15T20:03:55.585Z,32.78
2022-11-15T20:06:24.508Z,43.40
2022-11-15T20:08:52.017Z,41.63
2022-11-15T20:11:19.104Z,34.97
2022-11-15T20:13:45.983Z,32.97
2022-11-15T20:16:17.661Z,34.78
2022-11-15T20:18:44.474Z,33.92
2022-11-15T20:21:11.774Z,33.30
2022-11-15T20:23:39.291Z,30.48
2022-11-15T20:26:07.567Z,30.95
2022-11-15T20:28:37.016Z,30.23
2022-11-15T20:31:04.102Z,30.00
2022-11-15T20:33:30.736Z,30.90
2022-11-15T20:35:57.386Z,31.05
2022-11-15T20:38:24.419Z,30.48
2022-11-15T20:40:56.132Z,30.65
2022-11-15T20:43:25.805Z,33.03
2022-11-15T20:45:52.537Z,31.70
2022-11-15T20:48:19.290Z,31.38
2022-11-15T20:50:47.194Z,32.97
2022-11-15T20:53:17.415Z,33.42
2022-11-15T20:58:15.946Z,31.50
2022-11-15T21:00:44.721Z,33.42
2022-11-15T21:03:12.972Z,34.05
2022-11-15T21:05:41.429Z,35.03
2022-11-15T21:08:09.373Z,34.35
2022-11-15T21:10:54.666Z,35.22
2022-11-15T21:13:21.467Z,35.50
2022-11-15T21:15:48.468Z,35.95
2022-11-15T21:18:15.615Z,36.55
2022-11-15T21:20:42.512Z,35.28
2022-11-15T21:23:09.504Z,39.28
2022-11-15T21:25:36.158Z,39.30
2022-11-15T21:28:02.954Z,37.35
2022-11-15T21:30:29.977Z,37.05
2022-11-15T21:32:56.870Z,41.47
2022-11-15T21:35:23.865Z,39.50
2022-11-15T21:37:56.170Z,38.20
2022-11-15T21:40:23.865Z,40.42
2022-11-15T21:42:50.625Z,40.53
2022-11-15T21:45:17.325Z,41.67
2022-11-15T21:47:46.384Z,41.55
2022-11-15T21:50:13.876Z,39.53
2022-11-15T21:52:40.769Z,41.53
2022-11-15T21:55:08.195Z,41.67
2022-11-15T21:57:34.884Z,46.53
2022-11-15T22:00:20.289Z,43.53
2022-11-15T22:02:46.939Z,41.80
2022-11-15T22:05:13.682Z,46.13
2022-11-15T22:07:40.370Z,45.38
2022-11-15T22:10:07.254Z,44.33
2022-11-15T22:12:33.851Z,44.65
2022-11-15T22:15:00.482Z,43.25
2022-11-15T22:17:47.103Z,41.42
2022-11-15T22:20:37.582Z,43.55
2022-11-15T22:23:02.107Z,42.10
2022-11-15T22:25:28.912Z,42.17
2022-11-15T22:27:55.946Z,42.47
2022-11-15T22:30:22.777Z,42.03
2022-11-15T22:32:49.729Z,40.70
2022-11-15T22:35:16.828Z,41.42
2022-11-15T22:37:43.449Z,41.63
2022-11-15T22:40:10.482Z,42.47
2022-11-15T22:42:37.110Z,42.85
2022-11-15T22:45:04.199Z,42.25
2022-11-15T22:47:30.791Z,41.03
2022-11-15T22:49:57.954Z,42.08
2022-11-15T22:52:24.606Z,39.22
2022-11-15T22:54:51.278Z,40.17
2022-11-15T22:57:17.865Z,42.03
2022-11-15T22:59:44.496Z,42.13
2022-11-15T23:02:11.123Z,38.47
2022-11-15T23:04:37.768Z,41.00
2022-11-15T23:07:04.603Z,41.70
2022-11-15T23:09:31.339Z,39.88
2022-11-15T23:12:16.791Z,40.45
2022-11-15T23:14:43.407Z,41.38
2022-11-15T23:17:10.028Z,40.78
2022-11-15T23:19:36.662Z,41.78
2022-11-15T23:22:21.925Z,40.83
2022-11-15T23:24:48.641Z,38.40
2022-11-15T23:27:19.765Z,39.42
2022-11-15T23:30:05.707Z,39.67
2022-11-15T23:32:51.347Z,39.75
2022-11-15T23:35:18.063Z,37.92
2022-11-15T23:37:44.695Z,39.35
2022-11-15T23:40:12.098Z,37.90
2022-11-15T23:42:38.793Z,40.35
2022-11-15T23:45:06.282Z,39.13
2022-11-15T23:47:32.895Z,38.08
2022-11-15T23:49:59.533Z,39.35
2022-11-15T23:52:26.290Z,39.88
2022-11-15T23:54:52.975Z,40.17
2022-11-15T23:57:19.671Z,37.22
2022-11-15T23:59:46.315Z,38.50
